sensor_id;sensor_type;location;lat;lon;timestamp;temperature;humidity
5842;DHT22;2947;52.276;9.946;2023-06-22T00:00:57;21.70;1.00
5842;DHT22;2947;52.276;9.946;2023-06-22T00:03:24;21.60;1.00
5842;DHT22;2947;52.276;9.946;2023-06-22T00:05:51;21.60;27.40
5842;DHT22;2947;52.276;9.946;2023-06-22T00:08:18;21.50;99.90
5842;DHT22;2947;52.276;9.946;2023-06-22T00:10:44;21.50;1.00
5842;DHT22;2947;52.276;9.946;2023-06-22T00:13:11;21.40;1.00
5842;DHT22;2947;52.276;9.946;2023-06-22T00:15:39;21.40;99.90
5842;DHT22;2947;52.276;9.946;2023-06-22T00:18:06;21.40;1.00
5842;DHT22;2947;52.276;9.946;2023-06-22T00:20:32;21.30;1.00
5842;DHT22;2947;52.276;9.946;2023-06-22T00:22:59;21.40;99.90
5842;DHT22;2947;52.276;9.946;2023-06-22T00:25:25;21.40;99.90
5842;DHT22;2947;52.276;9.946;2023-06-22T00:27:51;21.40;1.00
5842;DHT22;2947;52.276;9.946;2023-06-22T00:30:17;21.40;99.90
5842;DHT22;2947;52.276;9.946;2023-06-22T00:32:45;21.40;99.90
5842;DHT22;2947;52.276;9.946;2023-06-22T00:35:12;21.30;99.90
5842;DHT22;2947;52.276;9.946;2023-06-22T00:37:39;21.10;1.00
5842;DHT22;2947;52.276;9.946;2023-06-22T00:40:08;21.10;1.00
5842;DHT22;2947;52.276;9.946;2023-06-22T00:42:36;21.00;99.90
5842;DHT22;2947;52.276;9.946;2023-06-22T00:45:03;20.90;99.90
5842;DHT22;2947;52.276;9.946;2023-06-22T00:47:29;20.90;99.90
5842;DHT22;2947;52.276;9.946;2023-06-22T00:49:55;20.90;97.70
5842;DHT22;2947;52.276;9.946;2023-06-22T00:52:22;21.00;99.90
5842;DHT22;2947;52.276;9.946;2023-06-22T00:54:52;21.00;99.90
5842;DHT22;2947;52.276;9.946;2023-06-22T00:57:20;21.00;99.90
5842;DHT22;2947;52.276;9.946;2023-06-22T00:59:47;21.00;1.00
5842;DHT22;2947;52.276;9.946;2023-06-22T01:02:13;20.90;99.90
5842;DHT22;2947;52.276;9.946;2023-06-22T01:04:40;20.80;99.90
5842;DHT22;2947;52.276;9.946;2023-06-22T01:07:18;20.70;1.00
5842;DHT22;2947;52.276;9.946;2023-06-22T01:09:59;20.50;1.00
5842;DHT22;2947;52.276;9.946;2023-06-22T01:12:27;20.20;99.90
5842;DHT22;2947;52.276;9.946;2023-06-22T01:15:04;20.00;1.00
5842;DHT22;2947;52.276;9.946;2023-06-22T01:17:33;20.00;1.00
5842;DHT22;2947;52.276;9.946;2023-06-22T01:20:00;20.00;1.00
5842;DHT22;2947;52.276;9.946;2023-06-22T01:22:33;20.00;1.00
5842;DHT22;2947;52.276;9.946;2023-06-22T01:25:20;19.90;1.00
5842;DHT22;2947;52.276;9.946;2023-06-22T01:31:08;19.90;1.00
5842;DHT22;2947;52.276;9.946;2023-06-22T01:33:38;19.90;33.00
5842;DHT22;2947;52.276;9.946;2023-06-22T01:36:05;19.90;99.90
5842;DHT22;2947;52.276;9.946;2023-06-22T01:38:33;19.80;99.90
5842;DHT22;2947;52.276;9.946;2023-06-22T01:40:59;19.80;99.90
5842;DHT22;2947;52.276;9.946;2023-06-22T01:43:27;19.70;99.90
5842;DHT22;2947;52.276;9.946;2023-06-22T01:45:55;19.70;1.00
5842;DHT22;2947;52.276;9.946;2023-06-22T01:48:22;19.70;1.00
5842;DHT22;2947;52.276;9.946;2023-06-22T01:50:48;19.70;1.00
5842;DHT22;2947;52.276;9.946;2023-06-22T01:53:14;19.60;1.00
5842;DHT22;2947;52.276;9.946;2023-06-22T01:55:39;19.60;1.00
5842;DHT22;2947;52.276;9.946;2023-06-22T01:58:05;19.60;1.00
5842;DHT22;2947;52.276;9.946;2023-06-22T02:00:37;19.50;1.00
5842;DHT22;2947;52.276;9.946;2023-06-22T02:03:14;19.50;1.00
5842;DHT22;2947;52.276;9.946;2023-06-22T02:05:50;19.50;99.90
5842;DHT22;2947;52.276;9.946;2023-06-22T02:08:21;19.60;99.90
5842;DHT22;2947;52.276;9.946;2023-06-22T02:10:50;19.50;99.90
5842;DHT22;2947;52.276;9.946;2023-06-22T02:13:18;19.50;99.90
5842;DHT22;2947;52.276;9.946;2023-06-22T02:15:45;19.50;1.00
5842;DHT22;2947;52.276;9.946;2023-06-22T02:18:12;19.50;99.90
5842;DHT22;2947;52.276;9.946;2023-06-22T02:20:39;19.50;1.00
5842;DHT22;2947;52.276;9.946;2023-06-22T02:23:06;19.40;99.90
5842;DHT22;2947;52.276;9.946;2023-06-22T02:25:33;19.50;99.90
5842;DHT22;2947;52.276;9.946;2023-06-22T02:27:59;19.40;99.90
5842;DHT22;2947;52.276;9.946;2023-06-22T02:30:25;19.40;1.00
5842;DHT22;2947;52.276;9.946;2023-06-22T02:32:51;19.40;1.00
5842;DHT22;2947;52.276;9.946;2023-06-22T02:35:30;19.40;5.40
5842;DHT22;2947;52.276;9.946;2023-06-22T02:38:02;19.40;99.90
5842;DHT22;2947;52.276;9.946;2023-06-22T02:40:29;19.40;99.90
5842;DHT22;2947;52.276;9.946;2023-06-22T02:42:55;19.40;1.00
5842;DHT22;2947;52.276;9.946;2023-06-22T02:45:23;19.40;1.00
5842;DHT22;2947;52.276;9.946;2023-06-22T02:47:49;19.40;1.00
5842;DHT22;2947;52.276;9.946;2023-06-22T02:50:15;19.40;1.00
5842;DHT22;2947;52.276;9.946;2023-06-22T02:52:40;19.40;1.00
5842;DHT22;2947;52.276;9.946;2023-06-22T02:55:06;19.40;1.00
5842;DHT22;2947;52.276;9.946;2023-06-22T02:57:33;19.40;1.00
5842;DHT22;2947;52.276;9.946;2023-06-22T02:59:59;19.50;1.00
5842;DHT22;2947;52.276;9.946;2023-06-22T03:02:25;19.30;99.90
5842;DHT22;2947;52.276;9.946;2023-06-22T03:04:52;19.40;1.00
5842;DHT22;2947;52.276;9.946;2023-06-22T03:07:19;19.30;1.00
5842;DHT22;2947;52.276;9.946;2023-06-22T03:09:45;19.30;1.00
5842;DHT22;2947;52.276;9.946;2023-06-22T03:12:11;19.20;81.60
5842;DHT22;2947;52.276;9.946;2023-06-22T03:14:37;19.20;99.90
5842;DHT22;2947;52.276;9.946;2023-06-22T03:17:04;19.10;99.90
5842;DHT22;2947;52.276;9.946;2023-06-22T03:19:30;19.10;99.90
5842;DHT22;2947;52.276;9.946;2023-06-22T03:21:58;19.10;99.90
5842;DHT22;2947;52.276;9.946;2023-06-22T03:24:25;19.20;99.90
5842;DHT22;2947;52.276;9.946;2023-06-22T03:26:51;19.20;99.90
5842;DHT22;2947;52.276;9.946;2023-06-22T03:29:16;19.20;99.90
5842;DHT22;2947;52.276;9.946;2023-06-22T03:31:42;19.10;99.90
5842;DHT22;2947;52.276;9.946;2023-06-22T03:34:08;19.20;99.90
5842;DHT22;2947;52.276;9.946;2023-06-22T03:36:33;19.10;99.90
5842;DHT22;2947;52.276;9.946;2023-06-22T03:38:59;19.10;99.90
5842;DHT22;2947;52.276;9.946;2023-06-22T03:41:24;19.10;99.90
5842;DHT22;2947;52.276;9.946;2023-06-22T03:43:50;19.10;99.90
5842;DHT22;2947;52.276;9.946;2023-06-22T03:46:16;19.10;99.90
5842;DHT22;2947;52.276;9.946;2023-06-22T03:48:42;19.20;99.90
5842;DHT22;2947;52.276;9.946;2023-06-22T03:51:08;19.30;99.90
5842;DHT22;2947;52.276;9.946;2023-06-22T03:53:33;19.30;99.90
5842;DHT22;2947;52.276;9.946;2023-06-22T03:55:59;19.30;99.90
5842;DHT22;2947;52.276;9.946;2023-06-22T03:58:25;19.30;99.90
5842;DHT22;2947;52.276;9.946;2023-06-22T04:00:52;19.40;99.90
5842;DHT22;2947;52.276;9.946;2023-06-22T04:03:18;19.40;99.90
5842;DHT22;2947;52.276;9.946;2023-06-22T04:05:45;19.40;99.90
5842;DHT22;2947;52.276;9.946;2023-06-22T04:08:12;19.40;99.90
5842;DHT22;2947;52.276;9.946;2023-06-22T04:10:38;19.50;99.90
5842;DHT22;2947;52.276;9.946;2023-06-22T04:13:04;19.50;99.90
5842;DHT22;2947;52.276;9.946;2023-06-22T04:15:29;19.50;99.90
5842;DHT22;2947;52.276;9.946;2023-06-22T04:17:55;19.60;99.90
5842;DHT22;2947;52.276;9.946;2023-06-22T04:20:22;19.60;99.90
5842;DHT22;2947;52.276;9.946;2023-06-22T04:22:51;19.60;99.90
5842;DHT22;2947;52.276;9.946;2023-06-22T04:25:18;19.70;99.90
5842;DHT22;2947;52.276;9.946;2023-06-22T04:27:43;19.70;99.90
5842;DHT22;2947;52.276;9.946;2023-06-22T04:30:10;19.70;99.90
5842;DHT22;2947;52.276;9.946;2023-06-22T04:32:37;19.70;99.90
5842;DHT22;2947;52.276;9.946;2023-06-22T04:35:04;19.70;99.90
5842;DHT22;2947;52.276;9.946;2023-06-22T04:37:30;19.80;99.90
5842;DHT22;2947;52.276;9.946;2023-06-22T04:39:56;19.80;99.90
5842;DHT22;2947;52.276;9.946;2023-06-22T04:42:22;19.90;99.90
5842;DHT22;2947;52.276;9.946;2023-06-22T04:44:48;19.90;99.90
5842;DHT22;2947;52.276;9.946;2023-06-22T04:47:14;19.90;64.50
5842;DHT22;2947;52.276;9.946;2023-06-22T04:49:39;19.90;99.90
5842;DHT22;2947;52.276;9.946;2023-06-22T04:52:10;20.00;95.80
5842;DHT22;2947;52.276;9.946;2023-06-22T04:54:38;20.10;44.60
5842;DHT22;2947;52.276;9.946;2023-06-22T04:57:06;20.10;1.00
5842;DHT22;2947;52.276;9.946;2023-06-22T04:59:36;20.10;57.40
5842;DHT22;2947;52.276;9.946;2023-06-22T05:02:04;20.10;1.00
5842;DHT22;2947;52.276;9.946;2023-06-22T05:04:31;20.10;1.00
5842;DHT22;2947;52.276;9.946;2023-06-22T05:06:57;20.10;16.20
5842;DHT22;2947;52.276;9.946;2023-06-22T05:09:24;20.10;37.90
5842;DHT22;2947;52.276;9.946;2023-06-22T05:11:50;20.10;31.50
5842;DHT22;2947;52.276;9.946;2023-06-22T05:14:17;20.20;14.60
5842;DHT22;2947;52.276;9.946;2023-06-22T05:16:44;20.20;95.20
5842;DHT22;2947;52.276;9.946;2023-06-22T05:19:10;20.50;32.10
5842;DHT22;2947;52.276;9.946;2023-06-22T05:21:36;20.30;99.90
5842;DHT22;2947;52.276;9.946;2023-06-22T05:24:02;20.30;76.70
5842;DHT22;2947;52.276;9.946;2023-06-22T05:26:33;20.30;87.60
5842;DHT22;2947;52.276;9.946;2023-06-22T05:29:00;20.40;1.00
5842;DHT22;2947;52.276;9.946;2023-06-22T05:31:28;20.40;1.00
5842;DHT22;2947;52.276;9.946;2023-06-22T05:33:54;20.50;1.00
5842;DHT22;2947;52.276;9.946;2023-06-22T05:36:20;20.50;1.00
5842;DHT22;2947;52.276;9.946;2023-06-22T05:38:50;20.70;1.00
5842;DHT22;2947;52.276;9.946;2023-06-22T05:41:19;20.70;1.00
5842;DHT22;2947;52.276;9.946;2023-06-22T05:43:45;20.70;1.00
5842;DHT22;2947;52.276;9.946;2023-06-22T05:46:10;20.80;1.00
5842;DHT22;2947;52.276;9.946;2023-06-22T05:48:36;20.90;1.00
5842;DHT22;2947;52.276;9.946;2023-06-22T05:51:02;20.90;1.00
5842;DHT22;2947;52.276;9.946;2023-06-22T05:53:28;21.10;1.00
5842;DHT22;2947;52.276;9.946;2023-06-22T05:55:53;21.10;99.90
5842;DHT22;2947;52.276;9.946;2023-06-22T05:58:19;21.20;1.00
5842;DHT22;2947;52.276;9.946;2023-06-22T06:00:45;21.30;99.90
5842;DHT22;2947;52.276;9.946;2023-06-22T06:03:11;21.30;99.90
5842;DHT22;2947;52.276;9.946;2023-06-22T06:05:37;21.40;1.00
5842;DHT22;2947;52.276;9.946;2023-06-22T06:08:05;21.50;96.00
5842;DHT22;2947;52.276;9.946;2023-06-22T06:10:32;21.60;1.00
5842;DHT22;2947;52.276;9.946;2023-06-22T06:12:59;21.60;1.00
5842;DHT22;2947;52.276;9.946;2023-06-22T06:15:27;21.70;99.90
5842;DHT22;2947;52.276;9.946;2023-06-22T06:17:54;21.70;1.00
5842;DHT22;2947;52.276;9.946;2023-06-22T06:20:22;21.70;1.00
5842;DHT22;2947;52.276;9.946;2023-06-22T06:22:49;21.80;1.00
5842;DHT22;2947;52.276;9.946;2023-06-22T06:25:16;21.80;99.90
5842;DHT22;2947;52.276;9.946;2023-06-22T06:27:46;21.90;99.90
5842;DHT22;2947;52.276;9.946;2023-06-22T06:30:13;21.90;99.90
5842;DHT22;2947;52.276;9.946;2023-06-22T06:32:41;22.00;99.90
5842;DHT22;2947;52.276;9.946;2023-06-22T06:35:09;22.20;1.00
5842;DHT22;2947;52.276;9.946;2023-06-22T06:37:40;22.20;49.50
5842;DHT22;2947;52.276;9.946;2023-06-22T06:40:08;22.30;1.00
5842;DHT22;2947;52.276;9.946;2023-06-22T06:42:37;22.40;1.00
5842;DHT22;2947;52.276;9.946;2023-06-22T06:45:06;22.50;82.60
5842;DHT22;2947;52.276;9.946;2023-06-22T06:47:32;22.60;99.90
5842;DHT22;2947;52.276;9.946;2023-06-22T06:49:58;22.70;99.90
5842;DHT22;2947;52.276;9.946;2023-06-22T06:52:23;22.70;1.00
5842;DHT22;2947;52.276;9.946;2023-06-22T06:54:49;22.70;1.00
5842;DHT22;2947;52.276;9.946;2023-06-22T06:57:17;22.80;99.90
5842;DHT22;2947;52.276;9.946;2023-06-22T06:59:43;22.90;1.00
5842;DHT22;2947;52.276;9.946;2023-06-22T07:02:09;22.90;99.90
5842;DHT22;2947;52.276;9.946;2023-06-22T07:04:34;22.90;99.90
5842;DHT22;2947;52.276;9.946;2023-06-22T07:07:01;22.90;1.00
5842;DHT22;2947;52.276;9.946;2023-06-22T07:09:28;23.00;1.00
5842;DHT22;2947;52.276;9.946;2023-06-22T07:11:54;23.00;1.00
5842;DHT22;2947;52.276;9.946;2023-06-22T07:14:19;23.10;1.00
5842;DHT22;2947;52.276;9.946;2023-06-22T07:16:45;23.20;1.00
5842;DHT22;2947;52.276;9.946;2023-06-22T07:19:11;23.20;1.00
5842;DHT22;2947;52.276;9.946;2023-06-22T07:21:38;23.20;99.90
5842;DHT22;2947;52.276;9.946;2023-06-22T07:24:05;23.20;99.90
5842;DHT22;2947;52.276;9.946;2023-06-22T07:26:32;23.30;99.90
5842;DHT22;2947;52.276;9.946;2023-06-22T07:28:58;23.40;99.90
5842;DHT22;2947;52.276;9.946;2023-06-22T07:31:27;23.40;99.90
5842;DHT22;2947;52.276;9.946;2023-06-22T07:33:52;23.50;99.90
5842;DHT22;2947;52.276;9.946;2023-06-22T07:36:18;23.60;99.90
5842;DHT22;2947;52.276;9.946;2023-06-22T07:38:44;23.70;99.90
5842;DHT22;2947;52.276;9.946;2023-06-22T07:41:10;23.80;99.90
5842;DHT22;2947;52.276;9.946;2023-06-22T07:43:35;24.00;99.90
5842;DHT22;2947;52.276;9.946;2023-06-22T07:46:05;24.00;99.90
5842;DHT22;2947;52.276;9.946;2023-06-22T07:48:31;24.00;99.90
5842;DHT22;2947;52.276;9.946;2023-06-22T07:50:57;24.10;99.90
5842;DHT22;2947;52.276;9.946;2023-06-22T07:53:23;24.10;99.90
5842;DHT22;2947;52.276;9.946;2023-06-22T07:55:49;24.10;99.90
5842;DHT22;2947;52.276;9.946;2023-06-22T07:58:15;24.20;99.90
5842;DHT22;2947;52.276;9.946;2023-06-22T08:00:44;24.20;99.90
5842;DHT22;2947;52.276;9.946;2023-06-22T08:03:09;24.20;62.40
5842;DHT22;2947;52.276;9.946;2023-06-22T08:05:35;24.20;70.10
5842;DHT22;2947;52.276;9.946;2023-06-22T08:08:01;24.20;50.30
5842;DHT22;2947;52.276;9.946;2023-06-22T08:10:26;24.30;99.90
5842;DHT22;2947;52.276;9.946;2023-06-22T08:12:52;24.20;99.90
5842;DHT22;2947;52.276;9.946;2023-06-22T08:15:18;24.20;99.90
5842;DHT22;2947;52.276;9.946;2023-06-22T08:17:44;24.30;99.90
5842;DHT22;2947;52.276;9.946;2023-06-22T08:20:11;24.40;91.00
5842;DHT22;2947;52.276;9.946;2023-06-22T08:22:38;24.40;87.30
5842;DHT22;2947;52.276;9.946;2023-06-22T08:25:05;24.40;63.40
5842;DHT22;2947;52.276;9.946;2023-06-22T08:27:31;24.50;78.40
5842;DHT22;2947;52.276;9.946;2023-06-22T08:29:58;24.60;82.70
5842;DHT22;2947;52.276;9.946;2023-06-22T08:32:25;24.60;17.30
5842;DHT22;2947;52.276;9.946;2023-06-22T08:34:53;24.50;1.00
5842;DHT22;2947;52.276;9.946;2023-06-22T08:37:20;24.40;1.00
5842;DHT22;2947;52.276;9.946;2023-06-22T08:39:47;24.60;1.00
5842;DHT22;2947;52.276;9.946;2023-06-22T08:42:13;24.60;1.00
5842;DHT22;2947;52.276;9.946;2023-06-22T08:44:38;24.70;8.60
5842;DHT22;2947;52.276;9.946;2023-06-22T08:47:04;24.70;1.00
5842;DHT22;2947;52.276;9.946;2023-06-22T08:49:30;24.80;20.20
5842;DHT22;2947;52.276;9.946;2023-06-22T08:51:55;24.90;29.90
5842;DHT22;2947;52.276;9.946;2023-06-22T08:54:22;24.90;27.10
5842;DHT22;2947;52.276;9.946;2023-06-22T08:56:48;24.90;1.00
5842;DHT22;2947;52.276;9.946;2023-06-22T08:59:14;24.90;1.00
5842;DHT22;2947;52.276;9.946;2023-06-22T09:01:39;24.90;1.00
5842;DHT22;2947;52.276;9.946;2023-06-22T09:04:05;24.80;1.00
5842;DHT22;2947;52.276;9.946;2023-06-22T09:06:32;24.90;1.00
5842;DHT22;2947;52.276;9.946;2023-06-22T09:08:58;24.70;1.00
5842;DHT22;2947;52.276;9.946;2023-06-22T09:11:27;24.80;1.00
5842;DHT22;2947;52.276;9.946;2023-06-22T09:13:52;24.80;80.90
5842;DHT22;2947;52.276;9.946;2023-06-22T09:16:19;24.90;28.60
5842;DHT22;2947;52.276;9.946;2023-06-22T09:18:48;24.90;41.60
5842;DHT22;2947;52.276;9.946;2023-06-22T09:21:14;25.00;1.00
5842;DHT22;2947;52.276;9.946;2023-06-22T09:23:40;24.90;1.00
5842;DHT22;2947;52.276;9.946;2023-06-22T09:26:05;24.90;9.90
5842;DHT22;2947;52.276;9.946;2023-06-22T09:28:31;25.00;44.00
5842;DHT22;2947;52.276;9.946;2023-06-22T09:30:58;25.00;61.60
5842;DHT22;2947;52.276;9.946;2023-06-22T09:33:25;25.00;1.00
5842;DHT22;2947;52.276;9.946;2023-06-22T09:35:51;25.00;8.20
5842;DHT22;2947;52.276;9.946;2023-06-22T09:38:17;25.10;30.90
5842;DHT22;2947;52.276;9.946;2023-06-22T09:40:43;25.20;63.30
5842;DHT22;2947;52.276;9.946;2023-06-22T09:43:09;25.20;4.40
5842;DHT22;2947;52.276;9.946;2023-06-22T09:45:34;25.20;1.00
5842;DHT22;2947;52.276;9.946;2023-06-22T09:48:00;25.30;1.00
5842;DHT22;2947;52.276;9.946;2023-06-22T09:50:26;25.30;19.80
5842;DHT22;2947;52.276;9.946;2023-06-22T09:52:51;25.30;1.00
5842;DHT22;2947;52.276;9.946;2023-06-22T09:55:20;25.40;8.50
5842;DHT22;2947;52.276;9.946;2023-06-22T09:57:47;25.50;1.00
5842;DHT22;2947;52.276;9.946;2023-06-22T10:00:13;25.60;3.50
5842;DHT22;2947;52.276;9.946;2023-06-22T10:02:43;25.70;37.70
5842;DHT22;2947;52.276;9.946;2023-06-22T10:05:09;25.70;35.90
5842;DHT22;2947;52.276;9.946;2023-06-22T10:07:35;25.90;20.90
5842;DHT22;2947;52.276;9.946;2023-06-22T10:10:06;26.00;15.50
5842;DHT22;2947;52.276;9.946;2023-06-22T10:12:32;26.20;1.00
5842;DHT22;2947;52.276;9.946;2023-06-22T10:14:58;26.40;1.00
5842;DHT22;2947;52.276;9.946;2023-06-22T10:17:23;26.50;1.00
5842;DHT22;2947;52.276;9.946;2023-06-22T10:19:49;26.60;1.00
5842;DHT22;2947;52.276;9.946;2023-06-22T10:22:15;26.70;1.00
5842;DHT22;2947;52.276;9.946;2023-06-22T10:24:40;26.80;1.00
5842;DHT22;2947;52.276;9.946;2023-06-22T10:27:10;26.80;1.00
5842;DHT22;2947;52.276;9.946;2023-06-22T10:29:37;26.80;1.00
5842;DHT22;2947;52.276;9.946;2023-06-22T10:32:03;26.90;1.00
5842;DHT22;2947;52.276;9.946;2023-06-22T10:34:29;26.90;1.00
5842;DHT22;2947;52.276;9.946;2023-06-22T10:36:54;27.00;1.00
5842;DHT22;2947;52.276;9.946;2023-06-22T10:39:20;27.00;1.00
5842;DHT22;2947;52.276;9.946;2023-06-22T10:41:46;27.00;1.00
5842;DHT22;2947;52.276;9.946;2023-06-22T10:44:11;27.10;1.00
5842;DHT22;2947;52.276;9.946;2023-06-22T10:46:37;27.10;1.00
5842;DHT22;2947;52.276;9.946;2023-06-22T10:49:03;27.10;1.00
5842;DHT22;2947;52.276;9.946;2023-06-22T10:51:29;27.20;1.00
5842;DHT22;2947;52.276;9.946;2023-06-22T10:53:56;27.20;1.00
5842;DHT22;2947;52.276;9.946;2023-06-22T10:56:22;27.30;1.00
5842;DHT22;2947;52.276;9.946;2023-06-22T10:58:48;27.40;1.00
5842;DHT22;2947;52.276;9.946;2023-06-22T11:01:14;27.30;1.00
5842;DHT22;2947;52.276;9.946;2023-06-22T11:03:39;27.40;1.00
5842;DHT22;2947;52.276;9.946;2023-06-22T11:06:05;27.40;1.00
5842;DHT22;2947;52.276;9.946;2023-06-22T11:08:31;27.50;1.00
5842;DHT22;2947;52.276;9.946;2023-06-22T11:10:56;27.50;1.00
5842;DHT22;2947;52.276;9.946;2023-06-22T11:13:22;27.50;1.00
5842;DHT22;2947;52.276;9.946;2023-06-22T11:15:48;27.50;1.00
5842;DHT22;2947;52.276;9.946;2023-06-22T11:18:13;27.60;1.00
5842;DHT22;2947;52.276;9.946;2023-06-22T11:20:39;27.50;1.00
5842;DHT22;2947;52.276;9.946;2023-06-22T11:23:06;27.70;1.00
5842;DHT22;2947;52.276;9.946;2023-06-22T11:25:32;27.80;99.90
5842;DHT22;2947;52.276;9.946;2023-06-22T11:28:01;27.70;99.90
5842;DHT22;2947;52.276;9.946;2023-06-22T11:30:28;27.70;99.90
5842;DHT22;2947;52.276;9.946;2023-06-22T11:32:53;27.90;1.00
5842;DHT22;2947;52.276;9.946;2023-06-22T11:35:19;28.10;1.00
5842;DHT22;2947;52.276;9.946;2023-06-22T11:37:45;28.40;1.00
5842;DHT22;2947;52.276;9.946;2023-06-22T11:40:11;28.50;99.90
5842;DHT22;2947;52.276;9.946;2023-06-22T11:42:37;28.80;99.90
5842;DHT22;2947;52.276;9.946;2023-06-22T11:45:05;28.90;99.90
5842;DHT22;2947;52.276;9.946;2023-06-22T11:47:31;29.00;99.90
5842;DHT22;2947;52.276;9.946;2023-06-22T11:49:56;29.10;99.90
5842;DHT22;2947;52.276;9.946;2023-06-22T11:52:22;29.20;99.90
5842;DHT22;2947;52.276;9.946;2023-06-22T11:54:48;29.20;99.90
5842;DHT22;2947;52.276;9.946;2023-06-22T11:57:13;29.50;99.90
5842;DHT22;2947;52.276;9.946;2023-06-22T11:59:39;29.50;99.90
5842;DHT22;2947;52.276;9.946;2023-06-22T12:02:05;29.50;99.90
5842;DHT22;2947;52.276;9.946;2023-06-22T12:04:32;29.70;99.90
5842;DHT22;2947;52.276;9.946;2023-06-22T12:06:58;29.80;99.90
5842;DHT22;2947;52.276;9.946;2023-06-22T12:09:24;29.90;99.90
5842;DHT22;2947;52.276;9.946;2023-06-22T12:11:50;29.90;99.90
5842;DHT22;2947;52.276;9.946;2023-06-22T12:14:15;29.90;99.90
5842;DHT22;2947;52.276;9.946;2023-06-22T12:16:41;29.80;99.90
5842;DHT22;2947;52.276;9.946;2023-06-22T12:19:09;29.90;99.90
5842;DHT22;2947;52.276;9.946;2023-06-22T12:21:35;29.90;99.90
5842;DHT22;2947;52.276;9.946;2023-06-22T12:24:02;30.00;99.90
5842;DHT22;2947;52.276;9.946;2023-06-22T12:26:27;30.00;99.90
5842;DHT22;2947;52.276;9.946;2023-06-22T12:28:53;30.00;99.90
5842;DHT22;2947;52.276;9.946;2023-06-22T12:31:19;30.00;99.90
5842;DHT22;2947;52.276;9.946;2023-06-22T12:33:44;30.10;99.90
5842;DHT22;2947;52.276;9.946;2023-06-22T12:36:10;30.10;99.90
5842;DHT22;2947;52.276;9.946;2023-06-22T12:38:36;30.00;99.90
5842;DHT22;2947;52.276;9.946;2023-06-22T12:41:01;30.10;99.90
5842;DHT22;2947;52.276;9.946;2023-06-22T12:43:27;30.10;99.90
5842;DHT22;2947;52.276;9.946;2023-06-22T12:45:53;30.10;99.90
5842;DHT22;2947;52.276;9.946;2023-06-22T12:48:19;30.10;99.90
5842;DHT22;2947;52.276;9.946;2023-06-22T12:50:45;30.10;99.90
5842;DHT22;2947;52.276;9.946;2023-06-22T12:53:13;30.00;99.90
5842;DHT22;2947;52.276;9.946;2023-06-22T12:55:38;29.90;99.90
5842;DHT22;2947;52.276;9.946;2023-06-22T12:58:04;29.90;99.90
5842;DHT22;2947;52.276;9.946;2023-06-22T13:00:30;29.90;99.90
5842;DHT22;2947;52.276;9.946;2023-06-22T13:02:55;29.80;99.90
5842;DHT22;2947;52.276;9.946;2023-06-22T13:05:21;29.80;99.90
5842;DHT22;2947;52.276;9.946;2023-06-22T13:07:47;29.80;99.90
5842;DHT22;2947;52.276;9.946;2023-06-22T13:10:12;29.60;99.90
5842;DHT22;2947;52.276;9.946;2023-06-22T13:12:38;29.70;99.90
5842;DHT22;2947;52.276;9.946;2023-06-22T13:15:04;29.70;99.90
5842;DHT22;2947;52.276;9.946;2023-06-22T13:17:30;29.70;99.90
5842;DHT22;2947;52.276;9.946;2023-06-22T13:19:56;29.70;99.90
5842;DHT22;2947;52.276;9.946;2023-06-22T13:22:30;29.70;99.90
5842;DHT22;2947;52.276;9.946;2023-06-22T13:24:57;29.60;99.90
5842;DHT22;2947;52.276;9.946;2023-06-22T13:27:23;29.70;99.90
5842;DHT22;2947;52.276;9.946;2023-06-22T13:29:49;29.70;99.90
5842;DHT22;2947;52.276;9.946;2023-06-22T13:32:15;29.60;99.90
5842;DHT22;2947;52.276;9.946;2023-06-22T13:34:42;29.60;99.90
5842;DHT22;2947;52.276;9.946;2023-06-22T13:37:08;29.60;99.90
5842;DHT22;2947;52.276;9.946;2023-06-22T13:39:34;29.60;99.90
5842;DHT22;2947;52.276;9.946;2023-06-22T13:41:59;29.50;99.90
5842;DHT22;2947;52.276;9.946;2023-06-22T13:44:25;29.50;99.90
5842;DHT22;2947;52.276;9.946;2023-06-22T13:46:54;29.60;99.90
5842;DHT22;2947;52.276;9.946;2023-06-22T13:49:20;29.50;99.90
5842;DHT22;2947;52.276;9.946;2023-06-22T13:51:47;29.50;99.90
5842;DHT22;2947;52.276;9.946;2023-06-22T13:54:13;29.50;99.90
5842;DHT22;2947;52.276;9.946;2023-06-22T13:56:39;29.40;99.90
5842;DHT22;2947;52.276;9.946;2023-06-22T13:59:05;29.40;99.90
5842;DHT22;2947;52.276;9.946;2023-06-22T14:01:32;29.40;99.90
5842;DHT22;2947;52.276;9.946;2023-06-22T14:03:57;29.30;99.90
5842;DHT22;2947;52.276;9.946;2023-06-22T14:06:23;29.40;99.90
5842;DHT22;2947;52.276;9.946;2023-06-22T14:08:49;29.20;99.90
5842;DHT22;2947;52.276;9.946;2023-06-22T14:11:16;29.00;99.90
5842;DHT22;2947;52.276;9.946;2023-06-22T14:13:43;28.70;99.90
5842;DHT22;2947;52.276;9.946;2023-06-22T14:16:10;28.40;99.90
5842;DHT22;2947;52.276;9.946;2023-06-22T14:18:36;28.40;1.00
5842;DHT22;2947;52.276;9.946;2023-06-22T14:21:01;27.50;1.00
5842;DHT22;2947;52.276;9.946;2023-06-22T14:23:27;28.10;1.00
5842;DHT22;2947;52.276;9.946;2023-06-22T14:25:54;28.00;1.00
5842;DHT22;2947;52.276;9.946;2023-06-22T14:28:20;27.90;1.00
5842;DHT22;2947;52.276;9.946;2023-06-22T14:30:48;28.40;99.90
5842;DHT22;2947;52.276;9.946;2023-06-22T14:33:15;27.50;99.90
5842;DHT22;2947;52.276;9.946;2023-06-22T14:35:54;27.30;99.90
5842;DHT22;2947;52.276;9.946;2023-06-22T14:38:23;27.30;99.90
5842;DHT22;2947;52.276;9.946;2023-06-22T14:40:49;27.20;1.00
5842;DHT22;2947;52.276;9.946;2023-06-22T14:43:15;27.20;99.90
5842;DHT22;2947;52.276;9.946;2023-06-22T14:45:41;27.10;1.00
5842;DHT22;2947;52.276;9.946;2023-06-22T14:48:07;26.90;1.00
5842;DHT22;2947;52.276;9.946;2023-06-22T14:50:32;26.80;95.10
5842;DHT22;2947;52.276;9.946;2023-06-22T14:52:58;26.70;12.00
5842;DHT22;2947;52.276;9.946;2023-06-22T14:55:24;26.70;38.60
5842;DHT22;2947;52.276;9.946;2023-06-22T14:57:49;26.50;3.60
5842;DHT22;2947;52.276;9.946;2023-06-22T15:00:15;26.40;99.90
5842;DHT22;2947;52.276;9.946;2023-06-22T15:02:41;26.20;1.00
5842;DHT22;2947;52.276;9.946;2023-06-22T15:05:07;26.20;1.00
5842;DHT22;2947;52.276;9.946;2023-06-22T15:07:33;26.10;99.90
5842;DHT22;2947;52.276;9.946;2023-06-22T15:09:59;26.10;99.90
5842;DHT22;2947;52.276;9.946;2023-06-22T15:12:24;27.20;99.90
5842;DHT22;2947;52.276;9.946;2023-06-22T15:14:50;26.10;99.90
5842;DHT22;2947;52.276;9.946;2023-06-22T15:17:16;26.00;99.90
5842;DHT22;2947;52.276;9.946;2023-06-22T15:19:42;25.90;99.90
5842;DHT22;2947;52.276;9.946;2023-06-22T15:22:08;25.90;99.90
5842;DHT22;2947;52.276;9.946;2023-06-22T15:24:34;25.90;46.00
5842;DHT22;2947;52.276;9.946;2023-06-22T15:27:00;25.80;99.90
5842;DHT22;2947;52.276;9.946;2023-06-22T15:29:26;25.90;99.90
5842;DHT22;2947;52.276;9.946;2023-06-22T15:31:52;25.80;99.90
5842;DHT22;2947;52.276;9.946;2023-06-22T15:34:18;25.70;97.40
5842;DHT22;2947;52.276;9.946;2023-06-22T15:36:44;25.60;99.90
5842;DHT22;2947;52.276;9.946;2023-06-22T15:39:10;25.40;1.00
5842;DHT22;2947;52.276;9.946;2023-06-22T15:41:40;25.10;99.90
5842;DHT22;2947;52.276;9.946;2023-06-22T15:44:07;24.60;1.00
5842;DHT22;2947;52.276;9.946;2023-06-22T15:46:33;23.90;99.90
5842;DHT22;2947;52.276;9.946;2023-06-22T15:48:59;23.80;1.00
5842;DHT22;2947;52.276;9.946;2023-06-22T15:51:25;22.80;1.00
5842;DHT22;2947;52.276;9.946;2023-06-22T15:53:50;22.60;38.70
5842;DHT22;2947;52.276;9.946;2023-06-22T15:56:16;22.40;99.90
5842;DHT22;2947;52.276;9.946;2023-06-22T15:58:42;22.20;99.90
5842;DHT22;2947;52.276;9.946;2023-06-22T16:01:07;22.10;99.90
5842;DHT22;2947;52.276;9.946;2023-06-22T16:03:36;21.90;99.90
5842;DHT22;2947;52.276;9.946;2023-06-22T16:06:01;22.00;99.90